sensor_id;sensor_type;location;lat;lon;timestamp;noise_LAeq;noise_LA_min;noise_LA_max;noise_LA01;noise_LA95
48967;Laerm;46511;53.148;8.204;2023-02-18T00:00:14;43.07;38.95;52.63;;
48967;Laerm;46511;53.148;8.204;2023-02-18T00:02:47;43.61;39.81;56.11;;
48967;Laerm;46511;53.148;8.204;2023-02-18T00:05:18;42.70;40.13;46.28;;
48967;Laerm;46511;53.148;8.204;2023-02-18T00:07:49;43.71;39.81;57.44;;
48967;Laerm;46511;53.148;8.204;2023-02-18T00:10:21;43.34;39.34;57.57;;
48967;Laerm;46511;53.148;8.204;2023-02-18T00:12:52;44.02;40.03;51.64;;
48967;Laerm;46511;53.148;8.204;2023-02-18T00:15:24;43.28;40.53;52.42;;
48967;Laerm;46511;53.148;8.204;2023-02-18T00:17:55;50.91;40.54;64.62;;
48967;Laerm;46511;53.148;8.204;2023-02-18T00:20:26;47.75;40.62;58.59;;
48967;Laerm;46511;53.148;8.204;2023-02-18T00:22:58;42.68;38.81;55.58;;
48967;Laerm;46511;53.148;8.204;2023-02-18T00:25:29;43.10;39.34;49.00;;
48967;Laerm;46511;53.148;8.204;2023-02-18T00:28:01;43.30;39.58;58.24;;
48967;Laerm;46511;53.148;8.204;2023-02-18T00:30:32;46.08;39.81;58.21;;
48967;Laerm;46511;53.148;8.204;2023-02-18T00:33:03;47.62;38.52;58.99;;
48967;Laerm;46511;53.148;8.204;2023-02-18T00:35:34;43.10;38.67;60.19;;
48967;Laerm;46511;53.148;8.204;2023-02-18T00:38:06;42.73;39.21;54.30;;
48967;Laerm;46511;53.148;8.204;2023-02-18T00:40:38;42.62;40.13;48.21;;
48967;Laerm;46511;53.148;8.204;2023-02-18T00:43:09;43.75;39.70;52.76;;
48967;Laerm;46511;53.148;8.204;2023-02-18T00:45:41;50.27;38.05;65.47;;
48967;Laerm;46511;53.148;8.204;2023-02-18T00:48:12;43.65;39.92;56.71;;
48967;Laerm;46511;53.148;8.204;2023-02-18T00:50:44;43.89;39.81;59.02;;
48967;Laerm;46511;53.148;8.204;2023-02-18T00:53:15;42.95;36.91;52.96;;
48967;Laerm;46511;53.148;8.204;2023-02-18T00:55:47;42.99;38.67;64.00;;
48967;Laerm;46511;53.148;8.204;2023-02-18T00:58:18;41.96;38.95;47.10;;
48967;Laerm;46511;53.148;8.204;2023-02-18T01:00:50;42.05;38.95;51.32;;
48967;Laerm;46511;53.148;8.204;2023-02-18T01:03:22;42.66;37.52;52.84;;
48967;Laerm;46511;53.148;8.204;2023-02-18T01:05:54;43.83;39.08;56.24;;
48967;Laerm;46511;53.148;8.204;2023-02-18T01:08:25;44.78;38.81;66.69;;
48967;Laerm;46511;53.148;8.204;2023-02-18T01:10:57;44.10;40.23;57.53;;
48967;Laerm;46511;53.148;8.204;2023-02-18T01:13:29;43.02;39.34;48.64;;
48967;Laerm;46511;53.148;8.204;2023-02-18T01:16:00;48.47;38.52;62.65;;
48967;Laerm;46511;53.148;8.204;2023-02-18T01:18:31;42.36;38.67;48.07;;
48967;Laerm;46511;53.148;8.204;2023-02-18T01:21:04;41.93;38.05;51.06;;
48967;Laerm;46511;53.148;8.204;2023-02-18T01:23:39;47.62;37.32;62.82;;
48967;Laerm;46511;53.148;8.204;2023-02-18T01:26:11;44.97;35.36;58.80;;
48967;Laerm;46511;53.148;8.204;2023-02-18T01:28:42;42.01;38.05;49.49;;
48967;Laerm;46511;53.148;8.204;2023-02-18T01:31:14;45.13;38.05;60.55;;
48967;Laerm;46511;53.148;8.204;2023-02-18T01:33:46;48.99;38.21;63.25;;
48967;Laerm;46511;53.148;8.204;2023-02-18T01:36:17;42.20;36.91;51.90;;
48967;Laerm;46511;53.148;8.204;2023-02-18T01:38:48;43.15;39.46;53.21;;
48967;Laerm;46511;53.148;8.204;2023-02-18T01:41:20;42.38;38.05;53.46;;
48967;Laerm;46511;53.148;8.204;2023-02-18T01:44:14;42.54;37.52;55.81;;
48967;Laerm;46511;53.148;8.204;2023-02-18T01:46:46;42.84;37.88;61.42;;
48967;Laerm;46511;53.148;8.204;2023-02-18T01:49:37;42.69;38.81;48.55;;
48967;Laerm;46511;53.148;8.204;2023-02-18T01:52:15;42.98;39.46;55.42;;
48967;Laerm;46511;53.148;8.204;2023-02-18T01:54:51;42.92;38.37;54.46;;
48967;Laerm;46511;53.148;8.204;2023-02-18T01:57:33;42.16;37.88;49.47;;
48967;Laerm;46511;53.148;8.204;2023-02-18T02:00:11;42.39;37.70;56.23;;
48967;Laerm;46511;53.148;8.204;2023-02-18T02:02:45;42.22;38.52;52.18;;
48967;Laerm;46511;53.148;8.204;2023-02-18T02:05:18;62.33;39.08;73.69;;
48967;Laerm;46511;53.148;8.204;2023-02-18T02:07:51;44.60;38.81;66.38;;
48967;Laerm;46511;53.148;8.204;2023-02-18T02:10:29;42.64;38.21;56.88;;
48967;Laerm;46511;53.148;8.204;2023-02-18T02:13:25;42.89;37.70;55.76;;
48967;Laerm;46511;53.148;8.204;2023-02-18T02:16:06;44.37;38.95;56.07;;
48967;Laerm;46511;53.148;8.204;2023-02-18T02:18:53;43.37;38.37;62.90;;
48967;Laerm;46511;53.148;8.204;2023-02-18T02:21:39;41.68;37.88;51.77;;
48967;Laerm;46511;53.148;8.204;2023-02-18T02:35:08;42.41;37.70;53.18;;
48967;Laerm;46511;53.148;8.204;2023-02-18T02:37:59;41.55;37.12;46.62;;
48967;Laerm;46511;53.148;8.204;2023-02-18T02:40:40;42.63;38.21;55.07;;
48967;Laerm;46511;53.148;8.204;2023-02-18T02:43:40;42.41;38.37;55.25;;
48967;Laerm;46511;53.148;8.204;2023-02-18T02:46:27;42.87;38.37;48.70;;
48967;Laerm;46511;53.148;8.204;2023-02-18T02:51:53;41.91;37.12;54.12;;
48967;Laerm;46511;53.148;8.204;2023-02-18T02:54:28;45.53;37.88;68.17;;
48967;Laerm;46511;53.148;8.204;2023-02-18T02:59:54;41.87;36.69;50.12;;
48967;Laerm;46511;53.148;8.204;2023-02-18T03:05:20;42.09;37.32;52.64;;
48967;Laerm;46511;53.148;8.204;2023-02-18T03:11:04;42.55;38.81;48.48;;
48967;Laerm;46511;53.148;8.204;2023-02-18T03:16:27;43.14;39.46;47.24;;
48967;Laerm;46511;53.148;8.204;2023-02-18T03:19:23;43.19;38.37;51.65;;
48967;Laerm;46511;53.148;8.204;2023-02-18T03:22:04;42.26;37.52;52.45;;
48967;Laerm;46511;53.148;8.204;2023-02-18T03:24:41;42.90;38.37;49.85;;
48967;Laerm;46511;53.148;8.204;2023-02-18T03:27:22;41.85;38.52;44.73;;
48967;Laerm;46511;53.148;8.204;2023-02-18T03:29:58;42.99;38.67;60.57;;
48967;Laerm;46511;53.148;8.204;2023-02-18T03:32:33;43.78;38.52;55.97;;
48967;Laerm;46511;53.148;8.204;2023-02-18T03:35:09;43.26;39.46;52.71;;
48967;Laerm;46511;53.148;8.204;2023-02-18T03:37:47;42.71;38.95;48.73;;
48967;Laerm;46511;53.148;8.204;2023-02-18T03:40:20;43.22;37.32;54.98;;
48967;Laerm;46511;53.148;8.204;2023-02-18T03:42:51;43.28;38.67;56.18;;
48967;Laerm;46511;53.148;8.204;2023-02-18T03:45:23;43.10;39.70;58.87;;
48967;Laerm;46511;53.148;8.204;2023-02-18T03:47:54;50.64;39.58;65.52;;
48967;Laerm;46511;53.148;8.204;2023-02-18T03:50:26;42.31;38.05;46.66;;
48967;Laerm;46511;53.148;8.204;2023-02-18T03:52:57;43.12;40.62;49.87;;
48967;Laerm;46511;53.148;8.204;2023-02-18T03:55:28;43.01;40.43;49.83;;
48967;Laerm;46511;53.148;8.204;2023-02-18T03:58:00;42.68;39.92;49.79;;
48967;Laerm;46511;53.148;8.204;2023-02-18T04:00:31;42.45;39.81;45.77;;
48967;Laerm;46511;53.148;8.204;2023-02-18T04:03:02;41.65;38.37;45.63;;
48967;Laerm;46511;53.148;8.204;2023-02-18T04:05:33;52.44;39.08;66.52;;
48967;Laerm;46511;53.148;8.204;2023-02-18T04:08:05;43.81;40.18;62.97;;
48967;Laerm;46511;53.148;8.204;2023-02-18T04:10:36;42.73;39.34;50.84;;
48967;Laerm;46511;53.148;8.204;2023-02-18T04:13:07;43.04;40.43;52.35;;
48967;Laerm;46511;53.148;8.204;2023-02-18T04:15:38;43.09;40.23;49.62;;
48967;Laerm;46511;53.148;8.204;2023-02-18T04:18:10;42.95;40.43;52.34;;
48967;Laerm;46511;53.148;8.204;2023-02-18T04:20:41;43.08;40.23;51.67;;
48967;Laerm;46511;53.148;8.204;2023-02-18T04:23:13;50.85;39.92;68.17;;
48967;Laerm;46511;53.148;8.204;2023-02-18T04:25:45;43.83;40.80;52.09;;
48967;Laerm;46511;53.148;8.204;2023-02-18T04:28:16;43.79;40.89;59.26;;
48967;Laerm;46511;53.148;8.204;2023-02-18T04:30:47;45.45;40.43;68.23;;
48967;Laerm;46511;53.148;8.204;2023-02-18T04:33:19;56.15;41.89;69.62;;
48967;Laerm;46511;53.148;8.204;2023-02-18T04:35:50;45.35;41.82;53.45;;
48967;Laerm;46511;53.148;8.204;2023-02-18T04:38:21;52.46;42.16;68.29;;
48967;Laerm;46511;53.148;8.204;2023-02-18T04:40:52;55.22;42.22;70.34;;
48967;Laerm;46511;53.148;8.204;2023-02-18T04:43:24;49.46;42.13;66.91;;
48967;Laerm;46511;53.148;8.204;2023-02-18T04:45:55;50.44;42.09;65.13;;
48967;Laerm;46511;53.148;8.204;2023-02-18T04:48:26;50.57;41.22;67.25;;
48967;Laerm;46511;53.148;8.204;2023-02-18T04:50:57;50.63;42.09;64.53;;
48967;Laerm;46511;53.148;8.204;2023-02-18T04:53:28;50.26;41.53;64.84;;
48967;Laerm;46511;53.148;8.204;2023-02-18T04:56:00;50.72;40.71;71.25;;
48967;Laerm;46511;53.148;8.204;2023-02-18T04:58:31;55.40;39.34;77.91;;
48967;Laerm;46511;53.148;8.204;2023-02-18T05:01:03;55.37;39.70;74.53;;
48967;Laerm;46511;53.148;8.204;2023-02-18T05:03:35;51.14;41.14;75.18;;
48967;Laerm;46511;53.148;8.204;2023-02-18T05:06:06;51.32;39.34;65.34;;
48967;Laerm;46511;53.148;8.204;2023-02-18T05:08:37;51.69;40.88;66.13;;
48967;Laerm;46511;53.148;8.204;2023-02-18T05:11:09;51.28;40.03;68.14;;
48967;Laerm;46511;53.148;8.204;2023-02-18T05:13:40;55.13;40.62;68.48;;
48967;Laerm;46511;53.148;8.204;2023-02-18T05:16:11;49.76;41.61;64.87;;
48967;Laerm;46511;53.148;8.204;2023-02-18T05:18:43;50.59;41.68;66.32;;
48967;Laerm;46511;53.148;8.204;2023-02-18T05:21:15;56.30;41.68;69.29;;
48967;Laerm;46511;53.148;8.204;2023-02-18T05:23:46;51.36;41.75;67.29;;
48967;Laerm;46511;53.148;8.204;2023-02-18T05:26:17;54.11;41.22;65.79;;
48967;Laerm;46511;53.148;8.204;2023-02-18T05:28:49;49.88;40.80;66.81;;
48967;Laerm;46511;53.148;8.204;2023-02-18T05:31:20;55.68;41.38;68.68;;
48967;Laerm;46511;53.148;8.204;2023-02-18T05:33:51;53.78;41.14;68.19;;
48967;Laerm;46511;53.148;8.204;2023-02-18T05:36:23;53.02;41.38;73.59;;
48967;Laerm;46511;53.148;8.204;2023-02-18T05:38:54;50.02;41.30;69.44;;
48967;Laerm;46511;53.148;8.204;2023-02-18T05:41:25;57.90;40.71;70.51;;
48967;Laerm;46511;53.148;8.204;2023-02-18T05:43:57;56.06;40.71;73.55;;
48967;Laerm;46511;53.148;8.204;2023-02-18T05:46:46;52.69;40.80;67.95;;
48967;Laerm;46511;53.148;8.204;2023-02-18T05:49:18;49.85;41.30;66.92;;
48967;Laerm;46511;53.148;8.204;2023-02-18T05:51:49;51.60;41.22;64.16;;
48967;Laerm;46511;53.148;8.204;2023-02-18T05:54:20;48.15;43.24;63.72;;
48967;Laerm;46511;53.148;8.204;2023-02-18T05:56:52;51.65;42.74;66.43;;
48967;Laerm;46511;53.148;8.204;2023-02-18T05:59:23;52.79;43.14;71.27;;
48967;Laerm;46511;53.148;8.204;2023-02-18T06:01:55;54.10;42.29;72.91;;
48967;Laerm;46511;53.148;8.204;2023-02-18T06:04:27;53.39;42.29;68.32;;
48967;Laerm;46511;53.148;8.204;2023-02-18T06:06:58;49.97;42.47;66.54;;
48967;Laerm;46511;53.148;8.204;2023-02-18T06:09:29;56.66;42.16;70.83;;
48967;Laerm;46511;53.148;8.204;2023-02-18T06:12:00;52.49;42.13;67.24;;
48967;Laerm;46511;53.148;8.204;2023-02-18T06:14:32;53.68;42.09;70.82;;
48967;Laerm;46511;53.148;8.204;2023-02-18T06:17:03;52.99;43.09;68.02;;
48967;Laerm;46511;53.148;8.204;2023-02-18T06:19:34;55.34;43.04;68.50;;
48967;Laerm;46511;53.148;8.204;2023-02-18T06:22:06;56.61;42.93;69.03;;
48967;Laerm;46511;53.148;8.204;2023-02-18T06:24:38;55.82;42.09;71.12;;
48967;Laerm;46511;53.148;8.204;2023-02-18T06:27:09;53.90;42.35;70.71;;
48967;Laerm;46511;53.148;8.204;2023-02-18T06:29:40;55.61;43.14;73.09;;
48967;Laerm;46511;53.148;8.204;2023-02-18T06:32:12;55.41;43.58;71.65;;
48967;Laerm;46511;53.148;8.204;2023-02-18T06:34:43;56.09;43.81;73.15;;
48967;Laerm;46511;53.148;8.204;2023-02-18T06:37:14;54.64;44.54;72.27;;
48967;Laerm;46511;53.148;8.204;2023-02-18T06:39:45;57.95;44.11;70.13;;
48967;Laerm;46511;53.148;8.204;2023-02-18T06:42:17;48.35;43.72;73.85;;
48967;Laerm;46511;53.148;8.204;2023-02-18T06:44:48;55.55;44.87;70.74;;
48967;Laerm;46511;53.148;8.204;2023-02-18T06:47:19;55.37;44.69;70.86;;
48967;Laerm;46511;53.148;8.204;2023-02-18T06:49:50;58.53;45.33;73.13;;
48967;Laerm;46511;53.148;8.204;2023-02-18T06:52:22;58.27;46.02;70.78;;
48967;Laerm;46511;53.148;8.204;2023-02-18T06:54:53;53.71;45.36;75.27;;
48967;Laerm;46511;53.148;8.204;2023-02-18T06:57:24;54.76;44.76;68.66;;
48967;Laerm;46511;53.148;8.204;2023-02-18T06:59:56;56.07;44.72;66.56;;
48967;Laerm;46511;53.148;8.204;2023-02-18T07:02:27;57.06;45.04;69.47;;
48967;Laerm;46511;53.148;8.204;2023-02-18T07:04:58;53.00;44.07;68.00;;
48967;Laerm;46511;53.148;8.204;2023-02-18T07:07:30;56.58;45.04;67.78;;
48967;Laerm;46511;53.148;8.204;2023-02-18T07:10:03;47.79;43.72;62.43;;
48967;Laerm;46511;53.148;8.204;2023-02-18T07:12:34;58.29;43.86;68.82;;
48967;Laerm;46511;53.148;8.204;2023-02-18T07:15:05;57.74;44.15;69.83;;
48967;Laerm;46511;53.148;8.204;2023-02-18T07:17:37;50.64;43.77;66.69;;
48967;Laerm;46511;53.148;8.204;2023-02-18T07:20:08;52.53;43.77;66.51;;
48967;Laerm;46511;53.148;8.204;2023-02-18T07:22:39;56.66;44.07;69.42;;
48967;Laerm;46511;53.148;8.204;2023-02-18T07:25:11;57.09;45.17;69.57;;
48967;Laerm;46511;53.148;8.204;2023-02-18T07:27:42;57.67;45.11;68.22;;
48967;Laerm;46511;53.148;8.204;2023-02-18T07:30:14;54.45;43.99;67.95;;
48967;Laerm;46511;53.148;8.204;2023-02-18T07:32:45;58.08;44.73;69.01;;
48967;Laerm;46511;53.148;8.204;2023-02-18T07:35:17;57.14;46.02;68.44;;
48967;Laerm;46511;53.148;8.204;2023-02-18T07:37:49;58.29;45.36;78.65;;
48967;Laerm;46511;53.148;8.204;2023-02-18T07:40:21;58.21;46.87;69.91;;
48967;Laerm;46511;53.148;8.204;2023-02-18T07:42:52;58.80;45.60;75.81;;
48967;Laerm;46511;53.148;8.204;2023-02-18T07:45:23;58.77;45.86;68.45;;
48967;Laerm;46511;53.148;8.204;2023-02-18T07:47:55;58.95;46.35;74.74;;
48967;Laerm;46511;53.148;8.204;2023-02-18T07:50:26;62.30;46.30;74.26;;
48967;Laerm;46511;53.148;8.204;2023-02-18T07:52:57;59.33;46.15;71.42;;
48967;Laerm;46511;53.148;8.204;2023-02-18T07:55:29;57.74;45.69;69.23;;
48967;Laerm;46511;53.148;8.204;2023-02-18T07:58:25;55.66;46.15;71.69;;
48967;Laerm;46511;53.148;8.204;2023-02-18T08:00:57;58.85;46.25;73.21;;
48967;Laerm;46511;53.148;8.204;2023-02-18T08:03:30;58.77;46.48;72.98;;
48967;Laerm;46511;53.148;8.204;2023-02-18T08:06:03;57.39;45.57;70.42;;
48967;Laerm;46511;53.148;8.204;2023-02-18T08:08:35;60.26;47.24;77.34;;
48967;Laerm;46511;53.148;8.204;2023-02-18T08:11:06;57.69;46.33;73.69;;
48967;Laerm;46511;53.148;8.204;2023-02-18T08:13:37;61.46;46.82;77.61;;
48967;Laerm;46511;53.148;8.204;2023-02-18T08:16:09;57.37;47.42;73.98;;
48967;Laerm;46511;53.148;8.204;2023-02-18T08:18:40;60.01;47.88;74.27;;
48967;Laerm;46511;53.148;8.204;2023-02-18T08:21:13;59.80;46.78;80.02;;
48967;Laerm;46511;53.148;8.204;2023-02-18T08:23:44;60.36;48.12;76.61;;
48967;Laerm;46511;53.148;8.204;2023-02-18T08:26:17;57.35;47.08;72.29;;
48967;Laerm;46511;53.148;8.204;2023-02-18T08:28:50;60.61;46.48;84.34;;
48967;Laerm;46511;53.148;8.204;2023-02-18T08:31:26;56.23;45.60;75.14;;
48967;Laerm;46511;53.148;8.204;2023-02-18T08:33:58;54.22;45.91;71.81;;
48967;Laerm;46511;53.148;8.204;2023-02-18T08:36:31;59.08;45.83;78.01;;
48967;Laerm;46511;53.148;8.204;2023-02-18T08:39:02;58.63;45.89;70.85;;
48967;Laerm;46511;53.148;8.204;2023-02-18T08:41:33;59.50;48.18;70.47;;
48967;Laerm;46511;53.148;8.204;2023-02-18T08:44:05;60.07;47.70;77.88;;
48967;Laerm;46511;53.148;8.204;2023-02-18T08:46:36;62.92;46.78;79.46;;
48967;Laerm;46511;53.148;8.204;2023-02-18T08:49:07;61.60;49.34;78.62;;
48967;Laerm;46511;53.148;8.204;2023-02-18T08:51:38;58.33;47.86;71.73;;
48967;Laerm;46511;53.148;8.204;2023-02-18T08:54:10;60.85;47.57;75.83;;
48967;Laerm;46511;53.148;8.204;2023-02-18T08:56:41;57.10;46.97;69.24;;
48967;Laerm;46511;53.148;8.204;2023-02-18T08:59:12;59.05;47.46;71.30;;
48967;Laerm;46511;53.148;8.204;2023-02-18T09:01:43;58.86;48.26;71.83;;
48967;Laerm;46511;53.148;8.204;2023-02-18T09:04:15;59.32;48.23;76.66;;
48967;Laerm;46511;53.148;8.204;2023-02-18T09:06:47;58.96;46.93;78.22;;
48967;Laerm;46511;53.148;8.204;2023-02-18T09:09:18;59.99;48.08;77.84;;
48967;Laerm;46511;53.148;8.204;2023-02-18T09:11:49;56.87;48.32;69.00;;
48967;Laerm;46511;53.148;8.204;2023-02-18T09:14:21;58.29;48.66;73.49;;
48967;Laerm;46511;53.148;8.204;2023-02-18T09:16:52;58.46;48.54;75.05;;
48967;Laerm;46511;53.148;8.204;2023-02-18T09:19:23;59.56;48.15;73.97;;
48967;Laerm;46511;53.148;8.204;2023-02-18T09:21:55;59.34;48.87;77.04;;
48967;Laerm;46511;53.148;8.204;2023-02-18T09:24:27;60.12;49.58;80.36;;
48967;Laerm;46511;53.148;8.204;2023-02-18T09:26:58;61.55;49.56;79.49;;
48967;Laerm;46511;53.148;8.204;2023-02-18T09:29:30;58.56;48.91;72.22;;
48967;Laerm;46511;53.148;8.204;2023-02-18T09:32:02;61.93;48.12;78.62;;
48967;Laerm;46511;53.148;8.204;2023-02-18T09:34:35;57.51;48.87;79.47;;
48967;Laerm;46511;53.148;8.204;2023-02-18T09:37:06;61.87;49.43;78.99;;
48967;Laerm;46511;53.148;8.204;2023-02-18T09:39:37;63.48;50.08;83.33;;
48967;Laerm;46511;53.148;8.204;2023-02-18T09:42:17;81.37;49.11;99.91;;
48967;Laerm;46511;53.148;8.204;2023-02-18T09:44:51;58.61;47.84;73.22;;
48967;Laerm;46511;53.148;8.204;2023-02-18T09:47:38;62.20;48.31;85.34;;
48967;Laerm;46511;53.148;8.204;2023-02-18T09:50:18;60.27;49.35;77.25;;
48967;Laerm;46511;53.148;8.204;2023-02-18T09:52:51;64.03;48.49;85.58;;
48967;Laerm;46511;53.148;8.204;2023-02-18T09:55:27;60.77;49.16;79.95;;
48967;Laerm;46511;53.148;8.204;2023-02-18T09:58:03;59.33;47.93;79.34;;
48967;Laerm;46511;53.148;8.204;2023-02-18T10:00:38;60.97;48.15;73.43;;
48967;Laerm;46511;53.148;8.204;2023-02-18T10:03:22;59.33;47.68;71.79;;
48967;Laerm;46511;53.148;8.204;2023-02-18T10:06:15;58.48;49.04;69.24;;
48967;Laerm;46511;53.148;8.204;2023-02-18T10:08:50;61.96;48.88;73.67;;
48967;Laerm;46511;53.148;8.204;2023-02-18T10:11:28;60.27;48.88;70.54;;
48967;Laerm;46511;53.148;8.204;2023-02-18T10:14:01;59.84;48.13;78.53;;
48967;Laerm;46511;53.148;8.204;2023-02-18T10:16:32;58.79;48.18;73.03;;
48967;Laerm;46511;53.148;8.204;2023-02-18T10:21:44;59.95;50.14;74.72;;
48967;Laerm;46511;53.148;8.204;2023-02-18T10:24:26;60.35;49.15;75.53;;
48967;Laerm;46511;53.148;8.204;2023-02-18T10:26:59;58.23;49.19;81.98;;
48967;Laerm;46511;53.148;8.204;2023-02-18T10:29:31;62.04;49.93;86.08;;
48967;Laerm;46511;53.148;8.204;2023-02-18T10:32:22;59.44;49.34;78.79;;
48967;Laerm;46511;53.148;8.204;2023-02-18T10:35:17;63.38;50.03;78.94;;
48967;Laerm;46511;53.148;8.204;2023-02-18T10:41:07;61.64;49.81;80.42;;
48967;Laerm;46511;53.148;8.204;2023-02-18T10:49:57;60.02;48.26;71.83;;
48967;Laerm;46511;53.148;8.204;2023-02-18T10:52:29;61.99;49.07;84.60;;
48967;Laerm;46511;53.148;8.204;2023-02-18T10:55:07;62.95;48.15;89.62;;
48967;Laerm;46511;53.148;8.204;2023-02-18T10:58:23;58.86;47.96;77.05;;
48967;Laerm;46511;53.148;8.204;2023-02-18T11:00:55;58.77;48.23;75.09;;
48967;Laerm;46511;53.148;8.204;2023-02-18T11:03:43;57.56;48.10;72.39;;
48967;Laerm;46511;53.148;8.204;2023-02-18T11:06:41;58.48;49.04;74.79;;
48967;Laerm;46511;53.148;8.204;2023-02-18T11:09:38;57.68;48.91;73.85;;
48967;Laerm;46511;53.148;8.204;2023-02-18T11:12:18;62.30;49.02;81.55;;
48967;Laerm;46511;53.148;8.204;2023-02-18T11:17:41;60.40;49.38;76.45;;
48967;Laerm;46511;53.148;8.204;2023-02-18T11:25:39;64.28;47.65;92.84;;
48967;Laerm;46511;53.148;8.204;2023-02-18T11:30:45;61.16;49.92;78.30;;
48967;Laerm;46511;53.148;8.204;2023-02-18T11:33:19;60.04;48.81;82.11;;
48967;Laerm;46511;53.148;8.204;2023-02-18T11:35:53;58.41;48.73;72.68;;
48967;Laerm;46511;53.148;8.204;2023-02-18T11:38:34;61.31;48.88;85.00;;
48967;Laerm;46511;53.148;8.204;2023-02-18T11:41:08;61.94;49.75;74.09;;
48967;Laerm;46511;53.148;8.204;2023-02-18T11:43:42;61.15;48.48;80.25;;
48967;Laerm;46511;53.148;8.204;2023-02-18T11:46:22;56.88;48.81;75.83;;
48967;Laerm;46511;53.148;8.204;2023-02-18T11:48:54;59.38;47.67;68.95;;
48967;Laerm;46511;53.148;8.204;2023-02-18T11:51:29;61.29;47.04;74.59;;
48967;Laerm;46511;53.148;8.204;2023-02-18T11:54:17;61.13;49.81;85.63;;
48967;Laerm;46511;53.148;8.204;2023-02-18T11:57:00;59.27;48.96;75.83;;
48967;Laerm;46511;53.148;8.204;2023-02-18T11:59:36;56.73;48.25;71.82;;
48967;Laerm;46511;53.148;8.204;2023-02-18T12:04:42;60.60;48.69;77.34;;
48967;Laerm;46511;53.148;8.204;2023-02-18T12:07:24;63.36;50.44;84.36;;
48967;Laerm;46511;53.148;8.204;2023-02-18T12:10:03;59.12;48.18;81.60;;
48967;Laerm;46511;53.148;8.204;2023-02-18T12:15:37;60.68;48.37;76.80;;
48967;Laerm;46511;53.148;8.204;2023-02-18T12:21:44;62.25;48.87;74.88;;
48967;Laerm;46511;53.148;8.204;2023-02-18T12:29:55;60.91;47.48;74.57;;
48967;Laerm;46511;53.148;8.204;2023-02-18T12:35:55;57.22;48.20;81.95;;
48967;Laerm;46511;53.148;8.204;2023-02-18T12:38:50;60.86;48.45;85.77;;
48967;Laerm;46511;53.148;8.204;2023-02-18T12:44:21;60.35;48.18;69.90;;
48967;Laerm;46511;53.148;8.204;2023-02-18T12:47:29;61.39;48.40;83.13;;
48967;Laerm;46511;53.148;8.204;2023-02-18T12:50:11;59.73;48.32;69.32;;
48967;Laerm;46511;53.148;8.204;2023-02-18T12:53:05;61.28;49.57;73.08;;
48967;Laerm;46511;53.148;8.204;2023-02-18T12:55:50;60.58;48.84;76.60;;
48967;Laerm;46511;53.148;8.204;2023-02-18T13:04:27;56.12;46.84;65.07;;
48967;Laerm;46511;53.148;8.204;2023-02-18T13:07:16;59.18;47.59;78.12;;
48967;Laerm;46511;53.148;8.204;2023-02-18T13:12:36;60.94;47.98;81.90;;
48967;Laerm;46511;53.148;8.204;2023-02-18T13:15:43;55.76;46.95;67.50;;
48967;Laerm;46511;53.148;8.204;2023-02-18T13:18:23;59.20;47.81;69.21;;
48967;Laerm;46511;53.148;8.204;2023-02-18T13:21:03;59.11;47.02;69.85;;
48967;Laerm;46511;53.148;8.204;2023-02-18T13:23:44;58.23;48.63;68.52;;
48967;Laerm;46511;53.148;8.204;2023-02-18T13:26:20;59.68;47.02;68.15;;
48967;Laerm;46511;53.148;8.204;2023-02-18T13:29:14;59.22;48.64;73.97;;
48967;Laerm;46511;53.148;8.204;2023-02-18T13:32:04;54.33;47.11;66.95;;
48967;Laerm;46511;53.148;8.204;2023-02-18T13:34:48;58.42;46.84;69.71;;
48967;Laerm;46511;53.148;8.204;2023-02-18T13:39:55;59.34;46.57;70.33;;
48967;Laerm;46511;53.148;8.204;2023-02-18T13:45:14;57.08;47.70;68.14;;
48967;Laerm;46511;53.148;8.204;2023-02-18T13:47:53;58.67;46.71;69.03;;
48967;Laerm;46511;53.148;8.204;2023-02-18T13:50:38;60.57;47.04;79.69;;
48967;Laerm;46511;53.148;8.204;2023-02-18T13:53:19;57.97;46.78;67.95;;
48967;Laerm;46511;53.148;8.204;2023-02-18T13:56:00;57.31;48.29;68.49;;
48967;Laerm;46511;53.148;8.204;2023-02-18T13:58:41;60.16;48.83;69.23;;
48967;Laerm;46511;53.148;8.204;2023-02-18T14:01:22;58.01;48.39;77.64;;
48967;Laerm;46511;53.148;8.204;2023-02-18T14:03:56;58.08;48.21;66.88;;
48967;Laerm;46511;53.148;8.204;2023-02-18T14:06:33;58.29;47.61;82.53;;
48967;Laerm;46511;53.148;8.204;2023-02-18T14:11:48;58.47;49.12;68.48;;
48967;Laerm;46511;53.148;8.204;2023-02-18T14:22:49;55.75;47.26;69.86;;
48967;Laerm;46511;53.148;8.204;2023-02-18T14:25:32;56.52;46.05;67.66;;
48967;Laerm;46511;53.148;8.204;2023-02-18T14:33:50;55.45;46.78;66.67;;
48967;Laerm;46511;53.148;8.204;2023-02-18T14:42:23;55.69;46.35;69.16;;
48967;Laerm;46511;53.148;8.204;2023-02-18T14:45:08;57.30;45.91;69.72;;
48967;Laerm;46511;53.148;8.204;2023-02-18T14:50:15;56.01;46.28;74.46;;
48967;Laerm;46511;53.148;8.204;2023-02-18T14:52:52;57.43;45.57;72.25;;
48967;Laerm;46511;53.148;8.204;2023-02-18T14:55:31;58.21;47.00;76.28;;
48967;Laerm;46511;53.148;8.204;2023-02-18T14:58:07;57.92;48.10;69.65;;
48967;Laerm;46511;53.148;8.204;2023-02-18T15:00:43;56.40;47.02;82.46;;
48967;Laerm;46511;53.148;8.204;2023-02-18T15:03:16;56.31;45.83;70.87;;
48967;Laerm;46511;53.148;8.204;2023-02-18T15:05:49;59.14;46.84;74.21;;
48967;Laerm;46511;53.148;8.204;2023-02-18T15:08:23;55.18;45.94;66.10;;
48967;Laerm;46511;53.148;8.204;2023-02-18T15:11:01;55.13;45.86;67.49;;
48967;Laerm;46511;53.148;8.204;2023-02-18T15:13:40;58.63;46.15;74.31;;
48967;Laerm;46511;53.148;8.204;2023-02-18T15:16:29;56.18;45.66;67.51;;
48967;Laerm;46511;53.148;8.204;2023-02-18T15:19:05;61.11;46.84;81.85;;
48967;Laerm;46511;53.148;8.204;2023-02-18T15:21:43;60.03;46.69;78.27;;
48967;Laerm;46511;53.148;8.204;2023-02-18T15:26:55;52.16;44.94;63.74;;
48967;Laerm;46511;53.148;8.204;2023-02-18T15:29:28;59.28;44.87;75.30;;
48967;Laerm;46511;53.148;8.204;2023-02-18T15:32:00;61.23;45.57;75.26;;
48967;Laerm;46511;53.148;8.204;2023-02-18T15:34:44;53.78;45.20;64.52;;
48967;Laerm;46511;53.148;8.204;2023-02-18T15:37:19;60.05;46.10;87.52;;
48967;Laerm;46511;53.148;8.204;2023-02-18T15:39:50;54.41;46.33;66.41;;
48967;Laerm;46511;53.148;8.204;2023-02-18T15:42:25;57.49;45.97;70.60;;
48967;Laerm;46511;53.148;8.204;2023-02-18T15:45:03;55.03;45.91;67.07;;
48967;Laerm;46511;53.148;8.204;2023-02-18T15:47:41;53.72;45.48;68.60;;
48967;Laerm;46511;53.148;8.204;2023-02-18T15:50:21;56.25;47.16;69.45;;
48967;Laerm;46511;53.148;8.204;2023-02-18T15:52:56;58.51;46.91;77.02;;
48967;Laerm;46511;53.148;8.204;2023-02-18T15:55:35;57.11;46.18;71.73;;
48967;Laerm;46511;53.148;8.204;2023-02-18T15:58:26;55.72;46.76;79.17;;
48967;Laerm;46511;53.148;8.204;2023-02-18T16:01:00;53.19;45.99;63.96;;
48967;Laerm;46511;53.148;8.204;2023-02-18T16:06:20;56.67;47.06;74.03;;
48967;Laerm;46511;53.148;8.204;2023-02-18T16:09:11;57.07;45.51;73.05;;
48967;Laerm;46511;53.148;8.204;2023-02-18T16:11:46;52.83;45.39;65.74;;
48967;Laerm;46511;53.148;8.204;2023-02-18T16:14:44;54.82;46.13;67.86;;
48967;Laerm;46511;53.148;8.204;2023-02-18T16:17:18;56.09;45.94;66.45;;
48967;Laerm;46511;53.148;8.204;2023-02-18T16:19:59;53.31;45.69;63.41;;
48967;Laerm;46511;53.148;8.204;2023-02-18T16:30:22;56.66;46.25;66.52;;